Aviation Digital Data Service (ADDS)

Output produced by METARs form (1851 UTC 02 October 2022)
found at http://www.aviationweather.gov/metar/data/
 
METAR text: WSSL 021800Z VRB01KT 9999 FEW018 BKN160 26/25 Q1009
Conditions at: WSSL (SINGAPORE/SELETA, SG) observed 1800 UTC 02 October 2022
Temperature: 26.0°C (79°F)
Dewpoint: 25.0°C (77°F) [RH = 94%]
Pressure (altimeter): 29.79 inches Hg (1009.0 mb)
Winds: variable direction winds at 1 MPH (1 knots; 0.5 m/s)
Visibility: 6 or more miles (10+ km)
Ceiling: 16000 feet AGL
Clouds: few clouds at 1800 feet AGL
broken clouds at 16000 feet AGL
Weather: no significant weather observed at this time

Forecast for: WSSL (SINGAPORE/SELETA, SG)
Text: TAF WSSL 021700Z 0218/0400 VRB05KT 9999 FEW015 BKN020
Forecast period: 1800 UTC 02 October 2022 to 0000 UTC 04 October 2022
Forecast type: FROM: standard forecast or significant change
Winds: variable direction winds at 6 MPH (5 knots; 2.6 m/s)
Visibility: 6 or more miles (10+ km)
Ceiling: 2000 feet AGL
Clouds: few clouds at 1500 feet AGL
broken clouds at 2000 feet AGL
Weather: no significant weather forecast for this period
Text: TEMPO 0307/0310 3000 TSRA FEW012CB BKN015
Forecast period: 0700 to 1000 UTC 03 October 2022
Forecast type: TEMPORARY: The following changes expected for less than half the time period
Visibility: 1.86 miles (2.99 km)
Ceiling: 1500 feet AGL
Clouds: few clouds at 1200 feet AGL
broken clouds at 1500 feet AGL
Weather: TSRA  (rain associated with thunderstorm(s))